sensor_id;sensor_type;location;lat;lon;timestamp;temperature;humidity
52973;DHT22;38837;48.916;2.336;2023-07-31T00:01:16;23.00;57.60
52973;DHT22;38837;48.916;2.336;2023-07-31T00:03:18;23.00;57.50
52973;DHT22;38837;48.916;2.336;2023-07-31T00:05:20;23.00;57.60
52973;DHT22;38837;48.916;2.336;2023-07-31T00:07:22;23.00;57.60
52973;DHT22;38837;48.916;2.336;2023-07-31T00:09:24;23.00;57.50
52973;DHT22;38837;48.916;2.336;2023-07-31T00:11:26;23.00;57.60
52973;DHT22;38837;48.916;2.336;2023-07-31T00:13:28;23.00;57.60
52973;DHT22;38837;48.916;2.336;2023-07-31T00:15:30;23.00;57.60
52973;DHT22;38837;48.916;2.336;2023-07-31T00:17:31;23.00;57.50
52973;DHT22;38837;48.916;2.336;2023-07-31T00:19:33;23.00;57.60
52973;DHT22;38837;48.916;2.336;2023-07-31T00:21:35;23.00;57.60
52973;DHT22;38837;48.916;2.336;2023-07-31T00:23:37;23.00;57.60
52973;DHT22;38837;48.916;2.336;2023-07-31T00:25:39;23.00;57.50
52973;DHT22;38837;48.916;2.336;2023-07-31T00:27:41;22.90;57.60
52973;DHT22;38837;48.916;2.336;2023-07-31T00:29:46;22.90;57.50
52973;DHT22;38837;48.916;2.336;2023-07-31T00:31:48;22.90;57.50
52973;DHT22;38837;48.916;2.336;2023-07-31T00:33:49;22.90;57.50
52973;DHT22;38837;48.916;2.336;2023-07-31T00:35:51;23.00;57.50
52973;DHT22;38837;48.916;2.336;2023-07-31T00:37:53;23.00;57.50
52973;DHT22;38837;48.916;2.336;2023-07-31T00:39:55;22.90;57.50
52973;DHT22;38837;48.916;2.336;2023-07-31T00:41:57;23.00;57.50
52973;DHT22;38837;48.916;2.336;2023-07-31T00:43:59;22.90;57.50
52973;DHT22;38837;48.916;2.336;2023-07-31T00:46:01;22.90;57.50
52973;DHT22;38837;48.916;2.336;2023-07-31T00:48:04;22.90;57.60
52973;DHT22;38837;48.916;2.336;2023-07-31T00:50:08;22.90;57.60
52973;DHT22;38837;48.916;2.336;2023-07-31T00:52:10;22.90;57.40
52973;DHT22;38837;48.916;2.336;2023-07-31T00:54:12;22.90;57.50
52973;DHT22;38837;48.916;2.336;2023-07-31T00:56:14;22.90;57.60
52973;DHT22;38837;48.916;2.336;2023-07-31T00:58:16;22.90;57.50
52973;DHT22;38837;48.916;2.336;2023-07-31T01:00:21;22.90;57.60
52973;DHT22;38837;48.916;2.336;2023-07-31T01:02:23;22.90;57.60
52973;DHT22;38837;48.916;2.336;2023-07-31T01:04:26;22.90;57.60
52973;DHT22;38837;48.916;2.336;2023-07-31T01:06:36;22.90;57.60
52973;DHT22;38837;48.916;2.336;2023-07-31T01:08:58;22.90;57.50
52973;DHT22;38837;48.916;2.336;2023-07-31T01:11:29;22.90;57.60
52973;DHT22;38837;48.916;2.336;2023-07-31T01:13:32;22.90;57.60
52973;DHT22;38837;48.916;2.336;2023-07-31T01:15:34;22.90;57.50
52973;DHT22;38837;48.916;2.336;2023-07-31T01:17:39;22.80;57.50
52973;DHT22;38837;48.916;2.336;2023-07-31T01:19:41;22.90;57.50
52973;DHT22;38837;48.916;2.336;2023-07-31T01:22:36;22.80;57.40
52973;DHT22;38837;48.916;2.336;2023-07-31T01:24:40;22.80;57.60
52973;DHT22;38837;48.916;2.336;2023-07-31T01:26:49;22.80;57.50
52973;DHT22;38837;48.916;2.336;2023-07-31T01:29:03;22.80;57.50
52973;DHT22;38837;48.916;2.336;2023-07-31T01:31:10;22.80;57.50
52973;DHT22;38837;48.916;2.336;2023-07-31T01:33:15;22.90;57.60
52973;DHT22;38837;48.916;2.336;2023-07-31T01:35:17;22.80;57.50
52973;DHT22;38837;48.916;2.336;2023-07-31T01:37:19;22.80;57.50
52973;DHT22;38837;48.916;2.336;2023-07-31T01:39:21;22.80;57.70
52973;DHT22;38837;48.916;2.336;2023-07-31T01:41:23;22.80;57.60
52973;DHT22;38837;48.916;2.336;2023-07-31T01:43:25;22.80;57.50
52973;DHT22;38837;48.916;2.336;2023-07-31T01:45:27;22.80;57.60
52973;DHT22;38837;48.916;2.336;2023-07-31T01:47:29;22.80;57.40
52973;DHT22;38837;48.916;2.336;2023-07-31T01:49:31;22.80;57.30
52973;DHT22;38837;48.916;2.336;2023-07-31T01:51:33;22.80;57.40
52973;DHT22;38837;48.916;2.336;2023-07-31T01:53:36;22.80;57.30
52973;DHT22;38837;48.916;2.336;2023-07-31T01:55:37;22.80;57.30
52973;DHT22;38837;48.916;2.336;2023-07-31T01:57:44;22.80;57.30
52973;DHT22;38837;48.916;2.336;2023-07-31T01:59:46;22.80;57.30
52973;DHT22;38837;48.916;2.336;2023-07-31T02:01:48;22.80;57.90
52973;DHT22;38837;48.916;2.336;2023-07-31T02:03:51;22.80;57.30
52973;DHT22;38837;48.916;2.336;2023-07-31T02:05:54;22.70;57.10
52973;DHT22;38837;48.916;2.336;2023-07-31T02:07:56;22.80;57.20
52973;DHT22;38837;48.916;2.336;2023-07-31T02:09:57;22.70;57.20
52973;DHT22;38837;48.916;2.336;2023-07-31T02:11:59;22.70;57.10
52973;DHT22;38837;48.916;2.336;2023-07-31T02:14:01;22.70;57.00
52973;DHT22;38837;48.916;2.336;2023-07-31T02:16:03;22.70;57.00
52973;DHT22;38837;48.916;2.336;2023-07-31T02:18:05;22.80;57.10
52973;DHT22;38837;48.916;2.336;2023-07-31T02:20:08;22.70;57.00
52973;DHT22;38837;48.916;2.336;2023-07-31T02:22:10;22.80;57.10
52973;DHT22;38837;48.916;2.336;2023-07-31T02:24:12;22.70;56.90
52973;DHT22;38837;48.916;2.336;2023-07-31T02:26:13;22.70;56.70
52973;DHT22;38837;48.916;2.336;2023-07-31T02:28:15;22.70;56.70
52973;DHT22;38837;48.916;2.336;2023-07-31T02:30:17;22.70;56.80
52973;DHT22;38837;48.916;2.336;2023-07-31T02:32:19;22.70;56.90
52973;DHT22;38837;48.916;2.336;2023-07-31T02:34:21;22.70;56.70
52973;DHT22;38837;48.916;2.336;2023-07-31T02:36:23;22.70;56.90
52973;DHT22;38837;48.916;2.336;2023-07-31T02:38:25;22.70;56.90
52973;DHT22;38837;48.916;2.336;2023-07-31T02:40:27;22.70;56.80
52973;DHT22;38837;48.916;2.336;2023-07-31T02:42:29;22.70;56.90
52973;DHT22;38837;48.916;2.336;2023-07-31T02:44:30;22.70;56.80
52973;DHT22;38837;48.916;2.336;2023-07-31T02:46:32;22.60;56.70
52973;DHT22;38837;48.916;2.336;2023-07-31T02:48:34;22.60;56.70
52973;DHT22;38837;48.916;2.336;2023-07-31T02:50:36;22.70;57.50
52973;DHT22;38837;48.916;2.336;2023-07-31T02:52:38;22.60;56.80
52973;DHT22;38837;48.916;2.336;2023-07-31T02:54:40;22.60;56.80
52973;DHT22;38837;48.916;2.336;2023-07-31T02:56:41;22.60;56.70
52973;DHT22;38837;48.916;2.336;2023-07-31T02:58:44;22.70;56.90
52973;DHT22;38837;48.916;2.336;2023-07-31T03:00:46;22.60;56.60
52973;DHT22;38837;48.916;2.336;2023-07-31T03:02:48;22.70;56.70
52973;DHT22;38837;48.916;2.336;2023-07-31T03:04:50;22.60;56.80
52973;DHT22;38837;48.916;2.336;2023-07-31T03:06:51;22.60;56.80
52973;DHT22;38837;48.916;2.336;2023-07-31T03:08:53;22.60;56.60
52973;DHT22;38837;48.916;2.336;2023-07-31T03:10:56;22.60;56.80
52973;DHT22;38837;48.916;2.336;2023-07-31T03:12:58;22.60;56.80
52973;DHT22;38837;48.916;2.336;2023-07-31T03:15:00;22.60;56.60
52973;DHT22;38837;48.916;2.336;2023-07-31T03:17:02;22.60;56.80
52973;DHT22;38837;48.916;2.336;2023-07-31T03:19:04;22.60;56.70
52973;DHT22;38837;48.916;2.336;2023-07-31T03:21:06;22.60;56.70
52973;DHT22;38837;48.916;2.336;2023-07-31T03:23:08;22.60;56.90
52973;DHT22;38837;48.916;2.336;2023-07-31T03:25:10;22.60;56.60
52973;DHT22;38837;48.916;2.336;2023-07-31T03:27:12;22.60;56.80
52973;DHT22;38837;48.916;2.336;2023-07-31T03:29:14;22.60;56.40
52973;DHT22;38837;48.916;2.336;2023-07-31T03:31:15;22.60;56.70
52973;DHT22;38837;48.916;2.336;2023-07-31T03:33:17;22.60;56.60
52973;DHT22;38837;48.916;2.336;2023-07-31T03:35:19;22.60;56.80
52973;DHT22;38837;48.916;2.336;2023-07-31T03:37:21;22.50;56.60
52973;DHT22;38837;48.916;2.336;2023-07-31T03:39:23;22.50;56.50
52973;DHT22;38837;48.916;2.336;2023-07-31T03:41:25;22.60;56.80
52973;DHT22;38837;48.916;2.336;2023-07-31T03:43:27;22.60;56.70
52973;DHT22;38837;48.916;2.336;2023-07-31T03:45:29;22.50;56.60
52973;DHT22;38837;48.916;2.336;2023-07-31T03:47:31;22.60;56.70
52973;DHT22;38837;48.916;2.336;2023-07-31T03:49:33;22.50;56.50
52973;DHT22;38837;48.916;2.336;2023-07-31T03:51:35;22.50;56.60
52973;DHT22;38837;48.916;2.336;2023-07-31T03:53:37;22.50;56.50
52973;DHT22;38837;48.916;2.336;2023-07-31T03:55:38;22.50;56.50
52973;DHT22;38837;48.916;2.336;2023-07-31T03:57:40;22.50;56.60
52973;DHT22;38837;48.916;2.336;2023-07-31T03:59:42;22.50;56.30
52973;DHT22;38837;48.916;2.336;2023-07-31T04:01:44;22.50;56.70
52973;DHT22;38837;48.916;2.336;2023-07-31T04:03:46;22.50;56.60
52973;DHT22;38837;48.916;2.336;2023-07-31T04:05:48;22.50;56.70
52973;DHT22;38837;48.916;2.336;2023-07-31T04:07:50;22.50;56.50
52973;DHT22;38837;48.916;2.336;2023-07-31T04:09:52;22.40;56.50
52973;DHT22;38837;48.916;2.336;2023-07-31T04:11:54;22.40;56.90
52973;DHT22;38837;48.916;2.336;2023-07-31T04:13:55;22.40;56.40
52973;DHT22;38837;48.916;2.336;2023-07-31T04:15:58;22.40;56.30
52973;DHT22;38837;48.916;2.336;2023-07-31T04:17:59;22.40;56.30
52973;DHT22;38837;48.916;2.336;2023-07-31T04:20:01;22.40;56.30
52973;DHT22;38837;48.916;2.336;2023-07-31T04:22:04;22.40;56.30
52973;DHT22;38837;48.916;2.336;2023-07-31T04:24:05;22.40;56.20
52973;DHT22;38837;48.916;2.336;2023-07-31T04:26:07;22.40;56.20
52973;DHT22;38837;48.916;2.336;2023-07-31T04:28:09;22.40;56.00
52973;DHT22;38837;48.916;2.336;2023-07-31T04:30:13;22.40;56.20
52973;DHT22;38837;48.916;2.336;2023-07-31T04:32:14;22.40;55.90
52973;DHT22;38837;48.916;2.336;2023-07-31T04:34:19;22.40;56.00
52973;DHT22;38837;48.916;2.336;2023-07-31T04:36:22;22.40;55.80
52973;DHT22;38837;48.916;2.336;2023-07-31T04:38:24;22.40;55.70
52973;DHT22;38837;48.916;2.336;2023-07-31T04:40:25;22.40;55.90
52973;DHT22;38837;48.916;2.336;2023-07-31T04:42:27;22.40;55.90
52973;DHT22;38837;48.916;2.336;2023-07-31T04:44:29;22.40;55.70
52973;DHT22;38837;48.916;2.336;2023-07-31T04:46:32;22.40;55.70
52973;DHT22;38837;48.916;2.336;2023-07-31T04:48:34;22.30;55.70
52973;DHT22;38837;48.916;2.336;2023-07-31T04:50:35;22.30;55.60
52973;DHT22;38837;48.916;2.336;2023-07-31T04:52:37;22.40;55.80
52973;DHT22;38837;48.916;2.336;2023-07-31T04:54:39;22.30;55.60
52973;DHT22;38837;48.916;2.336;2023-07-31T04:56:41;22.30;55.60
52973;DHT22;38837;48.916;2.336;2023-07-31T04:58:43;22.40;55.70
52973;DHT22;38837;48.916;2.336;2023-07-31T05:00:45;22.30;55.70
52973;DHT22;38837;48.916;2.336;2023-07-31T05:02:47;22.30;55.90
52973;DHT22;38837;48.916;2.336;2023-07-31T05:04:49;22.30;55.90
52973;DHT22;38837;48.916;2.336;2023-07-31T05:06:51;22.30;55.80
52973;DHT22;38837;48.916;2.336;2023-07-31T05:08:53;22.30;56.00
52973;DHT22;38837;48.916;2.336;2023-07-31T05:10:55;22.30;55.90
52973;DHT22;38837;48.916;2.336;2023-07-31T05:12:56;22.30;56.00
52973;DHT22;38837;48.916;2.336;2023-07-31T05:14:58;22.30;56.10
52973;DHT22;38837;48.916;2.336;2023-07-31T05:17:00;22.30;56.00
52973;DHT22;38837;48.916;2.336;2023-07-31T05:19:02;22.30;56.30
52973;DHT22;38837;48.916;2.336;2023-07-31T05:21:04;22.30;56.10
52973;DHT22;38837;48.916;2.336;2023-07-31T05:23:06;22.30;56.20
52973;DHT22;38837;48.916;2.336;2023-07-31T05:25:08;22.30;56.20
52973;DHT22;38837;48.916;2.336;2023-07-31T05:27:10;22.30;56.20
52973;DHT22;38837;48.916;2.336;2023-07-31T05:29:13;22.30;56.30
52973;DHT22;38837;48.916;2.336;2023-07-31T05:31:15;22.30;56.30
52973;DHT22;38837;48.916;2.336;2023-07-31T05:33:18;22.30;56.30
52973;DHT22;38837;48.916;2.336;2023-07-31T05:35:19;22.30;56.40
52973;DHT22;38837;48.916;2.336;2023-07-31T05:37:22;22.30;56.40
52973;DHT22;38837;48.916;2.336;2023-07-31T05:39:24;22.30;56.30
52973;DHT22;38837;48.916;2.336;2023-07-31T05:41:26;22.30;56.30
52973;DHT22;38837;48.916;2.336;2023-07-31T05:43:27;22.30;56.40
52973;DHT22;38837;48.916;2.336;2023-07-31T05:45:29;22.30;56.50
52973;DHT22;38837;48.916;2.336;2023-07-31T05:47:31;22.30;56.60
52973;DHT22;38837;48.916;2.336;2023-07-31T05:49:34;22.30;56.60
52973;DHT22;38837;48.916;2.336;2023-07-31T05:51:36;22.30;56.70
52973;DHT22;38837;48.916;2.336;2023-07-31T05:53:38;22.30;56.70
52973;DHT22;38837;48.916;2.336;2023-07-31T05:55:42;22.30;56.60
52973;DHT22;38837;48.916;2.336;2023-07-31T05:57:44;22.30;56.70
52973;DHT22;38837;48.916;2.336;2023-07-31T05:59:47;22.30;56.70
52973;DHT22;38837;48.916;2.336;2023-07-31T06:01:49;22.30;56.80
52973;DHT22;38837;48.916;2.336;2023-07-31T06:03:51;22.30;56.80
52973;DHT22;38837;48.916;2.336;2023-07-31T06:05:53;22.30;56.80
52973;DHT22;38837;48.916;2.336;2023-07-31T06:07:55;22.30;56.90
52973;DHT22;38837;48.916;2.336;2023-07-31T06:09:57;22.30;56.90
52973;DHT22;38837;48.916;2.336;2023-07-31T06:12:04;22.30;57.00
52973;DHT22;38837;48.916;2.336;2023-07-31T06:14:07;22.30;57.00
52973;DHT22;38837;48.916;2.336;2023-07-31T06:16:08;22.30;57.00
52973;DHT22;38837;48.916;2.336;2023-07-31T06:18:10;22.30;57.00
52973;DHT22;38837;48.916;2.336;2023-07-31T06:20:12;22.30;57.20
52973;DHT22;38837;48.916;2.336;2023-07-31T06:22:15;22.30;57.10
52973;DHT22;38837;48.916;2.336;2023-07-31T06:24:17;22.30;57.20
52973;DHT22;38837;48.916;2.336;2023-07-31T06:26:21;22.30;57.20
52973;DHT22;38837;48.916;2.336;2023-07-31T06:28:30;22.20;57.10
52973;DHT22;38837;48.916;2.336;2023-07-31T06:30:32;22.30;57.20
52973;DHT22;38837;48.916;2.336;2023-07-31T06:32:34;22.30;57.30
52973;DHT22;38837;48.916;2.336;2023-07-31T06:34:37;22.30;57.20
52973;DHT22;38837;48.916;2.336;2023-07-31T06:36:39;22.30;57.30
52973;DHT22;38837;48.916;2.336;2023-07-31T06:38:42;22.30;57.40
52973;DHT22;38837;48.916;2.336;2023-07-31T06:40:43;22.30;57.40
52973;DHT22;38837;48.916;2.336;2023-07-31T06:42:45;22.30;57.40
52973;DHT22;38837;48.916;2.336;2023-07-31T06:44:47;22.30;57.50
52973;DHT22;38837;48.916;2.336;2023-07-31T06:46:49;22.30;57.50
52973;DHT22;38837;48.916;2.336;2023-07-31T06:48:51;22.30;57.50
52973;DHT22;38837;48.916;2.336;2023-07-31T06:50:53;22.30;57.50
52973;DHT22;38837;48.916;2.336;2023-07-31T06:52:54;22.30;57.60
52973;DHT22;38837;48.916;2.336;2023-07-31T06:55:08;22.30;57.50
52973;DHT22;38837;48.916;2.336;2023-07-31T06:57:17;22.30;57.60
52973;DHT22;38837;48.916;2.336;2023-07-31T06:59:20;22.30;57.60
52973;DHT22;38837;48.916;2.336;2023-07-31T07:01:22;22.30;57.60
52973;DHT22;38837;48.916;2.336;2023-07-31T07:03:24;22.20;57.60
52973;DHT22;38837;48.916;2.336;2023-07-31T07:05:25;22.30;57.70
52973;DHT22;38837;48.916;2.336;2023-07-31T07:07:27;22.30;57.70
52973;DHT22;38837;48.916;2.336;2023-07-31T07:09:29;22.30;57.80
52973;DHT22;38837;48.916;2.336;2023-07-31T07:11:31;22.30;57.80
52973;DHT22;38837;48.916;2.336;2023-07-31T07:13:33;22.30;57.70
52973;DHT22;38837;48.916;2.336;2023-07-31T07:15:37;22.30;57.90
52973;DHT22;38837;48.916;2.336;2023-07-31T07:17:38;22.30;57.80
52973;DHT22;38837;48.916;2.336;2023-07-31T07:19:41;22.30;57.80
52973;DHT22;38837;48.916;2.336;2023-07-31T07:21:43;22.30;57.80
52973;DHT22;38837;48.916;2.336;2023-07-31T07:23:45;22.30;57.80
52973;DHT22;38837;48.916;2.336;2023-07-31T07:25:47;22.30;57.90
52973;DHT22;38837;48.916;2.336;2023-07-31T07:27:49;22.30;57.90
52973;DHT22;38837;48.916;2.336;2023-07-31T07:29:51;22.40;58.00
52973;DHT22;38837;48.916;2.336;2023-07-31T07:31:56;22.30;57.90
52973;DHT22;38837;48.916;2.336;2023-07-31T07:33:58;22.40;58.00
52973;DHT22;38837;48.916;2.336;2023-07-31T07:36:01;22.40;57.90
52973;DHT22;38837;48.916;2.336;2023-07-31T07:38:03;22.40;58.00
52973;DHT22;38837;48.916;2.336;2023-07-31T07:40:06;22.40;58.00
52973;DHT22;38837;48.916;2.336;2023-07-31T07:42:08;22.40;57.90
52973;DHT22;38837;48.916;2.336;2023-07-31T07:44:10;22.40;58.00
52973;DHT22;38837;48.916;2.336;2023-07-31T07:46:12;22.40;58.00
52973;DHT22;38837;48.916;2.336;2023-07-31T07:48:14;22.30;58.00
52973;DHT22;38837;48.916;2.336;2023-07-31T07:50:16;22.40;58.10
52973;DHT22;38837;48.916;2.336;2023-07-31T07:52:18;22.40;58.10
52973;DHT22;38837;48.916;2.336;2023-07-31T07:54:20;22.30;58.00
52973;DHT22;38837;48.916;2.336;2023-07-31T07:56:23;22.30;58.00
52973;DHT22;38837;48.916;2.336;2023-07-31T07:58:28;22.40;58.20
52973;DHT22;38837;48.916;2.336;2023-07-31T08:00:30;22.40;58.00
52973;DHT22;38837;48.916;2.336;2023-07-31T08:02:32;22.40;58.00
52973;DHT22;38837;48.916;2.336;2023-07-31T08:04:34;22.40;58.10
52973;DHT22;38837;48.916;2.336;2023-07-31T08:06:36;22.40;58.20
52973;DHT22;38837;48.916;2.336;2023-07-31T08:08:39;22.40;58.10
52973;DHT22;38837;48.916;2.336;2023-07-31T08:10:41;22.40;58.20
52973;DHT22;38837;48.916;2.336;2023-07-31T08:12:42;22.40;58.30
52973;DHT22;38837;48.916;2.336;2023-07-31T08:14:44;22.40;58.10
52973;DHT22;38837;48.916;2.336;2023-07-31T08:16:46;22.40;58.10
52973;DHT22;38837;48.916;2.336;2023-07-31T08:18:48;22.40;58.10
52973;DHT22;38837;48.916;2.336;2023-07-31T08:20:50;22.40;58.10
52973;DHT22;38837;48.916;2.336;2023-07-31T08:22:52;22.40;58.10
52973;DHT22;38837;48.916;2.336;2023-07-31T08:24:54;22.40;58.10
52973;DHT22;38837;48.916;2.336;2023-07-31T08:26:56;22.40;58.00
52973;DHT22;38837;48.916;2.336;2023-07-31T08:28:58;22.40;58.10
52973;DHT22;38837;48.916;2.336;2023-07-31T08:31:00;22.50;58.00
52973;DHT22;38837;48.916;2.336;2023-07-31T08:33:02;22.50;58.00
52973;DHT22;38837;48.916;2.336;2023-07-31T08:35:04;22.50;57.90
52973;DHT22;38837;48.916;2.336;2023-07-31T08:37:06;22.60;57.90
52973;DHT22;38837;48.916;2.336;2023-07-31T08:39:08;22.60;57.90
52973;DHT22;38837;48.916;2.336;2023-07-31T08:41:10;22.60;57.80
52973;DHT22;38837;48.916;2.336;2023-07-31T08:43:12;22.60;57.70
52973;DHT22;38837;48.916;2.336;2023-07-31T08:45:19;22.50;57.50
52973;DHT22;38837;48.916;2.336;2023-07-31T08:47:22;22.60;57.70
52973;DHT22;38837;48.916;2.336;2023-07-31T08:49:24;22.60;57.60
52973;DHT22;38837;48.916;2.336;2023-07-31T08:51:26;22.50;57.60
52973;DHT22;38837;48.916;2.336;2023-07-31T08:53:28;22.60;57.50
52973;DHT22;38837;48.916;2.336;2023-07-31T08:55:31;22.60;57.60
52973;DHT22;38837;48.916;2.336;2023-07-31T08:57:37;22.60;57.60
52973;DHT22;38837;48.916;2.336;2023-07-31T08:59:40;22.60;57.50
52973;DHT22;38837;48.916;2.336;2023-07-31T09:01:47;22.60;57.60
52973;DHT22;38837;48.916;2.336;2023-07-31T09:03:51;22.60;57.50
52973;DHT22;38837;48.916;2.336;2023-07-31T09:05:55;22.60;57.60
52973;DHT22;38837;48.916;2.336;2023-07-31T09:07:58;22.60;57.50
52973;DHT22;38837;48.916;2.336;2023-07-31T09:10:00;22.60;57.50
52973;DHT22;38837;48.916;2.336;2023-07-31T09:12:02;22.60;57.50
52973;DHT22;38837;48.916;2.336;2023-07-31T09:14:05;22.60;57.70
52973;DHT22;38837;48.916;2.336;2023-07-31T09:16:10;22.60;57.60
52973;DHT22;38837;48.916;2.336;2023-07-31T09:18:12;22.60;57.70
52973;DHT22;38837;48.916;2.336;2023-07-31T09:20:20;22.60;57.70
52973;DHT22;38837;48.916;2.336;2023-07-31T09:22:49;22.60;57.90
52973;DHT22;38837;48.916;2.336;2023-07-31T09:24:50;22.60;57.70
52973;DHT22;38837;48.916;2.336;2023-07-31T09:26:54;22.60;57.80
52973;DHT22;38837;48.916;2.336;2023-07-31T09:29:01;22.60;57.90
52973;DHT22;38837;48.916;2.336;2023-07-31T09:31:05;22.60;57.70
52973;DHT22;38837;48.916;2.336;2023-07-31T09:33:09;22.60;57.80
52973;DHT22;38837;48.916;2.336;2023-07-31T09:35:31;22.60;57.90
52973;DHT22;38837;48.916;2.336;2023-07-31T09:37:33;22.60;57.70
52973;DHT22;38837;48.916;2.336;2023-07-31T09:39:46;22.60;58.50
52973;DHT22;38837;48.916;2.336;2023-07-31T09:41:54;22.60;57.70
52973;DHT22;38837;48.916;2.336;2023-07-31T09:43:56;22.60;57.90
52973;DHT22;38837;48.916;2.336;2023-07-31T09:45:58;22.60;57.80
52973;DHT22;38837;48.916;2.336;2023-07-31T09:48:00;22.60;57.90
52973;DHT22;38837;48.916;2.336;2023-07-31T09:50:07;22.60;57.80
52973;DHT22;38837;48.916;2.336;2023-07-31T09:52:12;22.60;57.90
52973;DHT22;38837;48.916;2.336;2023-07-31T09:54:16;22.60;57.90
52973;DHT22;38837;48.916;2.336;2023-07-31T09:56:20;22.60;57.90
52973;DHT22;38837;48.916;2.336;2023-07-31T09:58:23;22.60;58.00
52973;DHT22;38837;48.916;2.336;2023-07-31T10:00:25;22.60;58.20
52973;DHT22;38837;48.916;2.336;2023-07-31T10:02:30;22.60;58.10
52973;DHT22;38837;48.916;2.336;2023-07-31T10:04:33;22.60;58.20
52973;DHT22;38837;48.916;2.336;2023-07-31T10:06:36;22.60;58.50
52973;DHT22;38837;48.916;2.336;2023-07-31T10:08:40;22.60;58.40
52973;DHT22;38837;48.916;2.336;2023-07-31T10:10:43;22.60;58.30
52973;DHT22;38837;48.916;2.336;2023-07-31T10:12:46;22.60;58.20
52973;DHT22;38837;48.916;2.336;2023-07-31T10:14:50;22.60;58.30
52973;DHT22;38837;48.916;2.336;2023-07-31T10:16:53;22.60;58.30
52973;DHT22;38837;48.916;2.336;2023-07-31T10:18:55;22.60;58.40
52973;DHT22;38837;48.916;2.336;2023-07-31T10:20:57;22.60;58.90
52973;DHT22;38837;48.916;2.336;2023-07-31T10:23:00;22.60;58.40
52973;DHT22;38837;48.916;2.336;2023-07-31T10:25:03;22.60;58.60
52973;DHT22;38837;48.916;2.336;2023-07-31T10:27:05;22.60;59.50
52973;DHT22;38837;48.916;2.336;2023-07-31T10:29:08;22.60;58.80
52973;DHT22;38837;48.916;2.336;2023-07-31T10:31:10;22.60;58.60
52973;DHT22;38837;48.916;2.336;2023-07-31T10:33:12;22.60;58.80
52973;DHT22;38837;48.916;2.336;2023-07-31T10:35:16;22.60;59.10
52973;DHT22;38837;48.916;2.336;2023-07-31T10:37:23;22.60;58.90
52973;DHT22;38837;48.916;2.336;2023-07-31T10:39:37;22.60;58.70
52973;DHT22;38837;48.916;2.336;2023-07-31T10:41:41;22.60;59.10
52973;DHT22;38837;48.916;2.336;2023-07-31T10:43:43;22.60;59.90
52973;DHT22;38837;48.916;2.336;2023-07-31T10:45:48;22.60;59.30
52973;DHT22;38837;48.916;2.336;2023-07-31T10:48:01;22.60;59.20
52973;DHT22;38837;48.916;2.336;2023-07-31T10:50:20;22.60;59.20
52973;DHT22;38837;48.916;2.336;2023-07-31T10:52:22;22.60;59.50
52973;DHT22;38837;48.916;2.336;2023-07-31T10:54:28;22.60;59.90
52973;DHT22;38837;48.916;2.336;2023-07-31T10:56:37;22.60;60.70
52973;DHT22;38837;48.916;2.336;2023-07-31T10:58:44;22.50;59.80
52973;DHT22;38837;48.916;2.336;2023-07-31T11:00:46;22.60;59.80
52973;DHT22;38837;48.916;2.336;2023-07-31T11:03:18;22.60;59.80
52973;DHT22;38837;48.916;2.336;2023-07-31T11:05:20;22.60;60.00
52973;DHT22;38837;48.916;2.336;2023-07-31T11:07:24;22.60;60.00
52973;DHT22;38837;48.916;2.336;2023-07-31T11:09:30;22.60;60.20
52973;DHT22;38837;48.916;2.336;2023-07-31T11:11:33;22.60;60.40
52973;DHT22;38837;48.916;2.336;2023-07-31T11:13:50;22.60;60.30
52973;DHT22;38837;48.916;2.336;2023-07-31T11:15:53;22.70;60.60
52973;DHT22;38837;48.916;2.336;2023-07-31T11:17:56;22.70;60.60
52973;DHT22;38837;48.916;2.336;2023-07-31T11:19:59;22.60;60.30
52973;DHT22;38837;48.916;2.336;2023-07-31T11:22:01;22.60;60.30
52973;DHT22;38837;48.916;2.336;2023-07-31T11:24:04;22.70;60.70
52973;DHT22;38837;48.916;2.336;2023-07-31T11:26:06;22.60;60.70
52973;DHT22;38837;48.916;2.336;2023-07-31T11:28:11;22.60;60.70
52973;DHT22;38837;48.916;2.336;2023-07-31T11:30:13;22.60;61.00
52973;DHT22;38837;48.916;2.336;2023-07-31T11:32:18;22.70;61.20
52973;DHT22;38837;48.916;2.336;2023-07-31T11:34:20;22.60;60.90
52973;DHT22;38837;48.916;2.336;2023-07-31T11:36:22;22.60;61.00
52973;DHT22;38837;48.916;2.336;2023-07-31T11:38:29;22.60;61.20
52973;DHT22;38837;48.916;2.336;2023-07-31T11:40:31;22.70;61.30
52973;DHT22;38837;48.916;2.336;2023-07-31T11:42:35;22.70;61.00
52973;DHT22;38837;48.916;2.336;2023-07-31T11:44:39;22.60;61.40
52973;DHT22;38837;48.916;2.336;2023-07-31T11:46:43;22.70;61.70
52973;DHT22;38837;48.916;2.336;2023-07-31T11:48:45;22.70;61.30
52973;DHT22;38837;48.916;2.336;2023-07-31T11:50:49;22.70;61.40
52973;DHT22;38837;48.916;2.336;2023-07-31T11:52:57;22.70;61.80
52973;DHT22;38837;48.916;2.336;2023-07-31T11:55:01;22.70;62.20
52973;DHT22;38837;48.916;2.336;2023-07-31T11:57:04;22.70;62.20
52973;DHT22;38837;48.916;2.336;2023-07-31T11:59:06;22.70;62.00
52973;DHT22;38837;48.916;2.336;2023-07-31T12:01:10;22.70;62.50
52973;DHT22;38837;48.916;2.336;2023-07-31T12:03:12;22.70;62.40
52973;DHT22;38837;48.916;2.336;2023-07-31T12:05:14;22.80;62.20
52973;DHT22;38837;48.916;2.336;2023-07-31T12:07:16;22.80;62.70
52973;DHT22;38837;48.916;2.336;2023-07-31T12:09:18;22.80;62.60
52973;DHT22;38837;48.916;2.336;2023-07-31T12:11:19;22.80;62.70
52973;DHT22;38837;48.916;2.336;2023-07-31T12:13:24;22.80;62.10
52973;DHT22;38837;48.916;2.336;2023-07-31T12:17:37;22.80;62.90
52973;DHT22;38837;48.916;2.336;2023-07-31T12:19:39;22.80;62.70
52973;DHT22;38837;48.916;2.336;2023-07-31T12:21:41;22.80;62.50
52973;DHT22;38837;48.916;2.336;2023-07-31T12:23:44;22.80;63.10
52973;DHT22;38837;48.916;2.336;2023-07-31T12:25:46;22.80;63.80
52973;DHT22;38837;48.916;2.336;2023-07-31T12:27:50;22.80;63.40
52973;DHT22;38837;48.916;2.336;2023-07-31T12:29:52;22.80;63.20
52973;DHT22;38837;48.916;2.336;2023-07-31T12:31:54;22.80;63.30
52973;DHT22;38837;48.916;2.336;2023-07-31T12:33:56;22.70;62.60
52973;DHT22;38837;48.916;2.336;2023-07-31T12:36:01;22.70;62.70
52973;DHT22;38837;48.916;2.336;2023-07-31T12:38:03;22.70;62.90
52973;DHT22;38837;48.916;2.336;2023-07-31T12:40:06;22.70;62.80
52973;DHT22;38837;48.916;2.336;2023-07-31T12:42:09;22.70;63.30
52973;DHT22;38837;48.916;2.336;2023-07-31T12:44:11;22.70;63.60
52973;DHT22;38837;48.916;2.336;2023-07-31T12:46:14;22.70;62.70
52973;DHT22;38837;48.916;2.336;2023-07-31T12:48:16;22.70;63.20
52973;DHT22;38837;48.916;2.336;2023-07-31T12:50:18;22.70;63.00
52973;DHT22;38837;48.916;2.336;2023-07-31T12:52:20;22.70;63.40
52973;DHT22;38837;48.916;2.336;2023-07-31T12:54:22;22.60;63.00
52973;DHT22;38837;48.916;2.336;2023-07-31T12:56:24;22.70;63.60
52973;DHT22;38837;48.916;2.336;2023-07-31T12:58:26;22.70;63.30
52973;DHT22;38837;48.916;2.336;2023-07-31T13:00:28;22.70;62.70